Vreeland, Netherlands
Current Conditions -  °F | °C
As of 5:55 AM on Tuesday 23 Dec 2014 (Local Time) from EHAM Reporting Station
Overcast Overcast  
Wind Chill: 52°   Ceiling: 3300
Heat Index: 52°   Visibility: 6mi
Dew Point: 45°   Wind: 25mph
Humidity: 76%   Direction: 230°SW
Pressure: 29.97"   Gusts: NA
Location:  52.23°N, 5.03°E
Report Text: EHAM 230455Z 23022KT 200V260 9999 OVC033 11/07 Q1015 NOSIG
Loading
Personal Weather Stations






























Interactive Weather Map New forecast layout! Learn more

10-Day Weather Forecast

Advertisements
Track Severe Weather on mobile